Flight Track Log - Related Links

Times and Time Zones

All times are in EDT time to prevent confusion due to time zone crossing. See the N693EE flight status page for this flight to view local times or setup timezone preferences in your user account.

Time Position Orientation Groundspeed Altitude Reporting Facility
EDT Latitude Longitude Course Direction KTS MPH feet Rate Location/Type
Fri 11:09:51 AM 44.5697 -108.9733 26° Northeast 135 155 7,800  Level Salt Lake Center
Fri 11:10:53 AM 44.6092 -108.9681 North 139 160 9,400 1,500 Climbing Salt Lake Center
Fri 11:11:00 AM 44.1838 -109.1265 192° South  Level FlightAware Approximate
Fri 11:11:55 AM 44.6247 -108.9300 60° Northeast 174 200 10,900  Level Salt Lake Center
Fri 11:12:00 AM 44.1280 -109.1433 192° South  Level FlightAware Approximate
Fri 11:12:57 AM 44.5811 -108.9372 187° South 171 197 12,600  Level Salt Lake Center
Fri 11:13:00 AM 44.0723 -109.1600 192° South  Level FlightAware Approximate
Fri 11:13:59 AM 44.5367 -108.9519 193° South 165 190 14,300  Level Salt Lake Center
Fri 11:14:00 AM 44.0171 -109.1798 196° South  Level FlightAware Approximate
Fri 11:15:01 AM 44.4817 -108.9492 178° South 165 190 16,200  Level Salt Lake Center
Fri 11:16:03 AM 44.4328 -108.9383 171° South 174 200 17,800 1,500 Climbing Salt Lake Center
Fri 11:17:05 AM 44.3853 -108.9483 189° South 174 200 19,300 1,548 Climbing Salt Lake Center
Fri 11:18:07 AM 44.3372 -108.9686 197° South 180 207 21,000 1,597 Climbing Salt Lake Center
Fri 11:19:09 AM 44.2889 -108.9836 193° South 179 206 22,600 1,548 Climbing Salt Lake Center
Fri 11:20:11 AM 44.2417 -109.0008 195° South 177 204 24,200 1,597 Climbing Salt Lake Center
Fri 11:21:13 AM 44.1836 -109.0197 193° South 178 205 25,900 1,355 Climbing Salt Lake Center
Fri 11:22:15 AM 44.1406 -109.0367 196° South 168 193 27,000 532 Climbing Salt Lake Center
Fri 11:23:17 AM 44.0914 -109.0519 193° South 178 205 27,000  Level Salt Lake Center
Fri 11:24:19 AM 44.0369 -109.0697 193° South 197 227 27,000  Level Salt Lake Center
Fri 11:25:21 AM 43.9803 -109.0889 194° South 207 238 27,000  Level Salt Lake Center
Fri 11:26:23 AM 43.9233 -109.1078 193° South 212 244 27,000  Level Salt Lake Center
Fri 11:27:25 AM 43.8544 -109.1317 194° South 213 245 27,000  Level Salt Lake Center
Fri 11:28:27 AM 43.7967 -109.1508 193° South 213 245 27,000  Level Salt Lake Center
Fri 11:29:29 AM 43.7394 -109.1694 193° South 213 245 27,000  Level Salt Lake Center
Fri 11:30:31 AM 43.6811 -109.1889 194° South 215 247 27,000  Level Salt Lake Center
Fri 11:31:33 AM 43.6219 -109.2089 194° South 217 250 27,000  Level Salt Lake Center
Fri 11:32:35 AM 43.5636 -109.2278 193° South 216 249 27,000  Level Salt Lake Center
Fri 11:33:37 AM 43.4936 -109.2517 194° South 217 250 27,000  Level Salt Lake Center
Fri 11:34:39 AM 43.4342 -109.2708 193° South 219 252 27,000  Level Salt Lake Center
Fri 11:35:41 AM 43.3744 -109.2919 194° South 221 254 27,000  Level Salt Lake Center
Fri 11:36:43 AM 43.3156 -109.3094 192° South 218 251 27,000  Level Salt Lake Center
Fri 11:37:45 AM 43.2567 -109.3292 194° South 219 252 27,000  Level Salt Lake Center
Fri 11:38:47 AM 43.1978 -109.3489 194° South 218 251 27,000  Level Salt Lake Center
Fri 11:39:49 AM 43.1264 -109.3711 193° South 219 252 27,000  Level Salt Lake Center
Fri 11:40:51 AM 43.0675 -109.3919 194° South 219 252 27,000  Level Salt Lake Center
Fri 11:41:53 AM 43.0086 -109.4117 194° South 218 251 27,000  Level Salt Lake Center
Fri 11:42:55 AM 42.9458 -109.4311 193° South 220 253 27,000  Level Salt Lake Center
Fri 11:43:57 AM 42.8886 -109.4486 193° South 221 254 27,000  Level Salt Lake Center
Fri 11:44:59 AM 42.8214 -109.4697 193° South 222 255 27,000  Level Salt Lake Center
Fri 11:46:01 AM 42.7636 -109.4900 194° South 222 255 27,000  Level Salt Lake Center
Fri 11:47:03 AM 42.6950 -109.5108 193° South 225 259 27,000  Level Salt Lake Center
Fri 11:48:05 AM 42.6375 -109.5314 195° South 224 258 27,000  Level Salt Lake Center
Fri 11:49:07 AM 42.5694 -109.5514 192° South 223 257 27,000  Level Salt Lake Center
Fri 11:50:09 AM 42.5108 -109.5706 194° South 226 260 27,000  Level Salt Lake Center
Fri 11:51:11 AM 42.4436 -109.5919 193° South 223 257 27,000  Level Salt Lake Center
Fri 11:52:13 AM 42.3850 -109.6117 194° South 225 259 27,000  Level Salt Lake Center
Fri 11:53:15 AM 42.3158 -109.6333 193° South 228 262 27,000  Level Salt Lake Center
Fri 11:54:18 AM 42.2575 -109.6508 193° South 226 260 27,000  Level Salt Lake Center
Fri 11:55:20 AM 42.1886 -109.6733 194° South 228 262 27,000  Level Salt Lake Center
Fri 11:56:22 AM 42.1308 -109.6900 192° South 224 258 27,000  Level Salt Lake Center
Fri 11:57:24 AM 42.0614 -109.7125 194° South 229 264 27,000  Level Salt Lake Center
Fri 11:58:26 AM 42.0019 -109.7308 193° South 229 264 27,000  Level Salt Lake Center
Fri 11:59:28 AM 41.9328 -109.7533 194° South 231 266 27,000  Level Salt Lake Center
Fri 12:00:29 PM 41.8736 -109.7714 193° South 229 264 27,000  Level Salt Lake Center
Fri 12:01:31 PM 41.8042 -109.7931 193° South 230 265 27,000  Level Salt Lake Center
Fri 12:02:33 PM 41.7442 -109.8111 193° South 231 266 27,000  Level Salt Lake Center
Fri 12:03:36 PM 41.6733 -109.8322 193° South 233 268 27,000  Level Salt Lake Center
Fri 12:04:38 PM 41.6139 -109.8514 194° South 231 266 27,000  Level Salt Lake Center
Fri 12:05:40 PM 41.5439 -109.8739 194° South 232 267 27,000  Level Salt Lake Center
Fri 12:06:42 PM 41.4850 -109.8908 192° South 228 262 27,000  Level Salt Lake Center
Fri 12:07:44 PM 41.4256 -109.9097 193° South 229 264 27,000  Level Salt Lake Center
Fri 12:08:46 PM 41.3558 -109.9311 193° South 230 265 27,000  Level Salt Lake Center
Fri 12:09:48 PM 41.2972 -109.9497 193° South 228 262 27,000  Level Salt Lake Center
Fri 12:10:50 PM 41.2292 -109.9711 193° South 227 261 27,000  Level Salt Lake Center
Fri 12:11:52 PM 41.1706 -109.9881 192° South 226 260 27,000  Level Salt Lake Center
Fri 12:12:54 PM 41.1019 -110.0089 193° South 226 260 27,000  Level Salt Lake Center
Fri 12:13:56 PM 41.0436 -110.0278 194° South 226 260 27,000  Level Salt Lake Center
Fri 12:14:58 PM 40.9744 -110.0478 192° South 227 261 27,000  Level Salt Lake Center
Fri 12:16:00 PM 40.9158 -110.0661 193° South 228 262 27,000  Level Salt Lake Center
Fri 12:17:02 PM 40.8464 -110.0875 193° South 229 264 27,000  Level Salt Lake Center
Fri 12:18:04 PM 40.7883 -110.1044 192° South 228 262 27,000  Level Salt Lake Center
Fri 12:19:06 PM 40.7192 -110.1258 193° South 228 262 27,000  Level Salt Lake Center
Fri 12:20:08 PM 40.6606 -110.1436 193° South 227 261 27,000  Level Salt Lake Center
Fri 12:21:10 PM 40.5900 -110.1644 193° South 232 267 27,000  Level Salt Lake Center
Fri 12:22:12 PM 40.5289 -110.1825 193° South 234 269 27,000  Level Salt Lake Center
Fri 12:23:14 PM 40.4583 -110.2047 193° South 234 269 27,000  Level Salt Lake Center
Fri 12:24:16 PM 40.3961 -110.2222 192° South 237 273 27,000  Level Salt Lake Center
Fri 12:25:18 PM 40.3261 -110.2436 193° South 234 269 27,000  Level Salt Lake Center
Fri 12:26:20 PM 40.2653 -110.2617 193° South 235 270 27,000  Level Salt Lake Center
Fri 12:27:22 PM 40.1942 -110.2822 192° South 234 269 27,000  Level Salt Lake Center
Fri 12:28:24 PM 40.1347 -110.3000 193° South 231 266 27,000  Level Salt Lake Center
Fri 12:29:26 PM 40.0669 -110.3203 193° South 226 260 27,000  Level Salt Lake Center
Fri 12:30:28 PM 40.0078 -110.3381 193° South 227 261 27,000  Level Salt Lake Center
Fri 12:31:30 PM 39.9392 -110.3569 192° South 226 260 27,000  Level Salt Lake Center
Fri 12:32:32 PM 39.8800 -110.3758 194° South 228 262 27,000  Level Salt Lake Center
Fri 12:33:34 PM 39.8100 -110.3961 193° South 231 266 27,000  Level Salt Lake Center
Fri 12:34:36 PM 39.7511 -110.4136 193° South 228 262 27,000  Level Salt Lake Center
Fri 12:35:38 PM 39.6931 -110.4300 192° South 224 258 27,000  Level Salt Lake Center
Fri 12:36:40 PM 39.6244 -110.4500 193° South 227 261 27,000  Level Salt Lake Center
Fri 12:37:42 PM 39.5650 -110.4675 193° South 229 264 27,000  Level Salt Lake Center
Fri 12:38:44 PM 39.4969 -110.4886 193° South 227 261 27,000  Level Salt Lake Center
Fri 12:39:46 PM 39.4386 -110.5050 192° South 225 259 27,000  Level Salt Lake Center
Fri 12:40:48 PM 39.3697 -110.5247 192° South 225 259 27,000  Level Salt Lake Center
Fri 12:41:50 PM 39.3114 -110.5408 192° South 224 258 27,000  Level Salt Lake Center
Fri 12:43:27 PM 39.2158 -110.5678 192° South 219 252 27,000  Level Denver Center
Fri 12:44:29 PM 39.1481 -110.5861 192° South 222 255 27,000  Level Denver Center
Fri 12:45:32 PM 39.0911 -110.6039 194° South 220 253 27,000  Level Denver Center
Fri 12:46:34 PM 39.0242 -110.6225 192° South 219 252 27,000 -48 Level Denver Center
Fri 12:47:36 PM 38.9681 -110.6381 192° South 219 252 26,900 -435 Descending Denver Center
Fri 12:48:38 PM 38.9014 -110.6603 195° South 221 254 26,100 -919 Descending Denver Center
Fri 12:49:40 PM 38.8347 -110.6794 193° South 245 282 25,000 -532 Descending Denver Center
Fri 12:50:42 PM 38.7536 -110.7008 192° South 262 302 25,000  Level Denver Center
Fri 12:51:44 PM 38.6872 -110.7186 192° South 258 297 25,000 -677 Level Denver Center
Fri 12:52:46 PM 38.6067 -110.7433 193° South 265 305 23,600 -968 Descending Denver Center
Fri 12:53:48 PM 38.5303 -110.7658 193° South 284 327 23,000 -290 Descending Denver Center
Fri 12:54:50 PM 38.4453 -110.7869 191° South 282 325 23,000  Level Denver Center
Fri 12:55:52 PM 38.3736 -110.8058 192° South 277 319 23,000  Level Denver Center
Fri 12:56:54 PM 38.2925 -110.8303 193° South 272 313 23,000  Level Denver Center
Fri 12:57:56 PM 38.2219 -110.8483 191° South 270 311 23,000  Level Denver Center
Fri 12:58:58 PM 38.1514 -110.8692 193° South 271 312 23,000  Level Denver Center
Fri 01:00:01 PM 38.0692 -110.8914 192° South 271 312 23,000  Level Denver Center
Fri 01:01:03 PM 37.9958 -110.9119 192° South 267 307 23,000  Level Denver Center
Fri 01:02:05 PM 37.9253 -110.9325 193° South 261 300 23,000  Level Denver Center
Fri 01:03:07 PM 37.8550 -110.9514 192° South 259 298 23,000  Level Denver Center
Fri 01:04:09 PM 37.7825 -110.9706 192° South 264 304 23,000  Level Denver Center
Fri 01:05:11 PM 37.6958 -110.9956 193° South 265 305 23,000  Level Denver Center
Fri 01:06:13 PM 37.6228 -111.0161 193° South 268 308 23,000  Level Denver Center
Fri 01:07:15 PM 37.5506 -111.0358 192° South 265 305 23,000  Level Denver Center
Fri 01:08:17 PM 37.4786 -111.0561 193° South 265 305 23,000  Level Denver Center
Fri 01:09:19 PM 37.4192 -111.0722 192° South 269 310 23,000  Level Denver Center
Fri 01:10:21 PM 37.3328 -111.0958 192° South 266 306 23,000  Level Denver Center
Fri 01:11:24 PM 37.2472 -111.1194 192° South 262 302 23,000  Level Denver Center
Fri 01:12:26 PM 37.1742 -111.1383 192° South 265 305 23,000  Level Denver Center
Fri 01:13:28 PM 37.1011 -111.1586 192° South 267 307 23,000  Level Denver Center
Fri 01:14:30 PM 37.0283 -111.1783 192° South 268 308 23,000  Level Denver Center
Fri 01:15:32 PM 36.9564 -111.1978 192° South 265 305 23,000  Level Denver Center
Fri 01:16:34 PM 36.8839 -111.2164 192° South 265 305 23,000  Level Denver Center
Fri 01:17:36 PM 36.8000 -111.2394 192° South 259 298 23,000  Level Denver Center
Fri 01:18:38 PM 36.7300 -111.2586 192° South 258 297 23,000  Level Denver Center
Fri 01:19:40 PM 36.6622 -111.2769 192° South 253 291 23,000  Level Denver Center
Fri 01:20:42 PM 36.5950 -111.2950 192° South 250 288 23,000  Level Denver Center
Fri 01:21:44 PM 36.5264 -111.3125 192° South 251 289 23,000  Level Denver Center
Fri 01:22:47 PM 36.4600 -111.3314 193° South 247 284 23,000  Level Denver Center
Fri 01:23:49 PM 36.3806 -111.3522 192° South 243 280 23,000  Level Denver Center
Fri 01:25:03 PM 36.3028 -111.3733 192° South 241 277 23,000  Level Denver Center
Fri 01:26:05 PM 36.2383 -111.3906 192° South 237 273 23,000  Level Denver Center
Fri 01:27:07 PM 36.1756 -111.4072 192° South 234 269 23,000  Level Denver Center
Fri 01:28:09 PM 36.1125 -111.4242 192° South 233 268 23,000  Level Denver Center
Fri 01:29:11 PM 36.0403 -111.4425 192° South 224 258 23,000  Level Denver Center
Fri 01:30:14 PM 35.9800 -111.4583 192° South 222 255 23,000  Level Denver Center
Fri 01:31:16 PM 35.9189 -111.4742 192° South 223 257 23,000  Level Denver Center
Fri 01:32:18 PM 35.8575 -111.4903 192° South 226 260 23,000  Level Denver Center
Fri 01:33:20 PM 35.7967 -111.5069 193° South 224 258 23,000  Level Denver Center
Fri 01:34:22 PM 35.7361 -111.5225 192° South 223 257 23,000  Level Denver Center
Fri 01:35:24 PM 35.6644 -111.5411 192° South 220 253 23,000  Level Denver Center
Fri 01:36:26 PM 35.6061 -111.5578 193° South 216 249 23,000  Level Denver Center
Fri 01:37:28 PM 35.5483 -111.5708 190° South 214 246 23,000  Level Denver Center
Fri 01:38:30 PM 35.4906 -111.5872 193° South 213 245 23,000  Level Denver Center
Fri 01:39:32 PM 35.4317 -111.6025 192° South 216 249 23,000 -435 Level Denver Center
Fri 01:40:34 PM 35.3717 -111.6181 192° South 218 251 22,100 -912 Descending Denver Center
Fri 01:41:37 PM 35.2903 -111.6403 193° South 242 278 21,100 -932 Descending Denver Center
Fri 01:43:02 PM 35.1919 -111.6664 192° South 263 303 19,800 -898 Descending Albuquerque Center
Fri 01:44:04 PM 35.1158 -111.6864 192° South 275 316 18,900 -823 Descending Albuquerque Center
Fri 01:45:06 PM 35.0394 -111.7061 192° South 280 322 18,100 -816 Descending Albuquerque Center
Fri 01:46:09 PM 34.9581 -111.7294 193° South 277 319 17,200 -480 Descending Albuquerque Center
Fri 01:47:11 PM 34.8842 -111.7508 193° South 274 315 17,100 -48 Descending Albuquerque Center
Fri 01:48:13 PM 34.8122 -111.7706 193° South 268 308 17,100  Level Albuquerque Center
Fri 01:49:15 PM 34.7356 -111.7914 193° South 259 298 17,100  Level Albuquerque Center
Fri 01:50:17 PM 34.6672 -111.8106 193° South 254 292 17,100 -194 Level Albuquerque Center
Fri 01:51:19 PM 34.6003 -111.8297 193° South 249 287 16,700 -726 Descending Albuquerque Center
Fri 01:52:21 PM 34.5111 -111.8558 194° South 268 308 15,600 -823 Descending Albuquerque Center
Fri 01:53:23 PM 34.4353 -111.8778 193° South 277 319 15,000 -726 Descending Albuquerque Center
Fri 01:54:25 PM 34.3603 -111.8992 193° South 278 320 14,100 -871 Descending Albuquerque Center
Fri 01:55:27 PM 34.2867 -111.9189 192° South 274 315 13,200 -823 Descending Albuquerque Center
Fri 01:56:29 PM 34.2089 -111.9211 181° South 281 323 12,400 -823 Descending Albuquerque Center
Fri 01:57:31 PM 34.1297 -111.9264 183° South 287 330 11,500 -968 Descending Albuquerque Center
Fri 01:58:33 PM 34.0367 -111.9275 181° South 283 326 10,400 -952 Descending Albuquerque Center
Fri 01:59:37 PM 33.9719 -111.8872 153° Southeast 269 310 9,500 -857 Descending Albuquerque Center
Fri 02:00:39 PM 33.9114 -111.8439 149° Southeast 262 302 8,600 -919 Descending Albuquerque Center
Fri 02:01:41 PM 33.8433 -111.7950 149° Southeast 242 278 7,600 -968 Descending Albuquerque Center
Fri 02:02:43 PM 33.7894 -111.7553 149° Southeast 231 266 6,600 -774 Descending Albuquerque Center
Fri 02:03:45 PM 33.7383 -111.7161 147° Southeast 221 254 6,000 -677 Descending Albuquerque Center
Fri 02:04:47 PM 33.6900 -111.6794 148° Southeast 208 239 5,200 -484 Descending Albuquerque Center
Fri 02:05:49 PM 33.6378 -111.6886 188° South 193 222 5,000 -629 Descending Albuquerque Center
Fri 02:06:51 PM 33.5744 -111.7069 194° South 193 222 3,900 -871 Descending Albuquerque Center
Fri 02:07:53 PM 33.5256 -111.7078 181° South 176 203 3,200 -726 Descending Albuquerque Center
Fri 02:08:55 PM 33.4881 -111.6986 168° South 141 162 2,400 -768 Descending Albuquerque Center
Fri 02:09:58 PM 33.4653 -111.7214 220° Southwest 103 119 1,600 -762 Descending Albuquerque Center
Fri 02:11:00 PM 33.4608 -111.7283 189° South  Level Estimated
Fri 02:18:00 PM 33.4608 -111.7283 189° South  Level Estimated

Login

Don't have an account? Register now (free) for customized features, flight alerts, and more!